Time;durP1;ratioP1;P1;durP2;ratioP2;P2;SDS_P1;SDS_P2;PMS_P1;PMS_P2;Temp;Humidity;BMP_temperature;BMP_pressure;BME280_temperature;BME280_humidity;BME280_pressure;Samples;Min_cycle;Max_cycle;Signal;HPM_P1;HPM_P2
2023/09/19 00:00:34;;;;;;;;;;;14.70;99.90;;;;;;5134076;27;20386;-40
2023/09/19 00:03:00;;;;;;;;;;;14.60;99.90;;;;;;5134073;27;19914;-40
2023/09/19 00:05:27;;;;;;;;;;;14.60;99.90;;;;;;5133938;27;19915;-41
2023/09/19 00:07:58;;;;;;;;;;;14.60;99.90;;;;;;5134075;27;19916;-40
2023/09/19 00:10:27;;;;;;;;;;;14.50;99.90;;;;;;5133898;27;19992;-41
2023/09/19 00:12:56;;;;;;;;;;;14.50;99.90;;;;;;5133883;27;19923;-41
2023/09/19 00:15:22;;;;;;;;;;;14.40;99.90;;;;;;5133803;27;20102;-40
2023/09/19 00:17:47;;;;;;;;;;;14.40;99.90;;;;;;5133352;27;20362;-41
2023/09/19 00:20:17;;;;;;;;;;;14.40;99.90;;;;;;5133620;27;19912;-40
2023/09/19 00:22:42;;;;;;;;;;;14.30;99.90;;;;;;5133889;27;20015;-40
2023/09/19 00:25:09;;;;;;;;;;;14.30;99.90;;;;;;5133660;27;20353;-40
2023/09/19 00:27:35;;;;;;;;;;;14.20;99.90;;;;;;5133865;28;19908;-41
2023/09/19 00:30:00;;;;;;;;;;;14.20;99.90;;;;;;5133658;28;20369;-41
2023/09/19 00:32:31;;;;;;;;;;;14.20;99.90;;;;;;5133302;27;19919;-40
2023/09/19 00:34:57;;;;;;;;;;;14.10;99.90;;;;;;5133381;28;19908;-41
2023/09/19 00:37:23;;;;;;;;;;;14.10;99.90;;;;;;5133515;28;19921;-41
2023/09/19 00:39:48;;;;;;;;;;;14.00;99.90;;;;;;5133540;28;19995;-42
2023/09/19 00:42:20;;;;;;;;;;;14.00;99.90;;;;;;5133105;27;20361;-40
2023/09/19 00:44:46;;;;;;;;;;;14.00;99.90;;;;;;5133424;27;19988;-41
2023/09/19 00:47:16;;;;;;;;;;;14.00;99.90;;;;;;5133504;28;20382;-41
2023/09/19 00:49:42;;;;;;;;;;;14.00;99.90;;;;;;5135160;27;19997;-41
2023/09/19 00:52:10;;;;;;;;;;;13.90;99.90;;;;;;5154101;27;20014;-42
2023/09/19 00:54:35;;;;;;;;;;;13.90;99.90;;;;;;5143020;27;19919;-42
2023/09/19 00:57:01;;;;;;;;;;;13.90;99.90;;;;;;5146954;27;19918;-40
2023/09/19 00:59:27;;;;;;;;;;;13.90;99.90;;;;;;5132919;27;20316;-41
2023/09/19 01:01:54;;;;;;;;;;;13.80;99.90;;;;;;5132993;27;19955;-41
2023/09/19 01:04:19;;;;;;;;;;;13.80;99.90;;;;;;5142854;27;19963;-42
2023/09/19 01:06:45;;;;;;;;;;;13.80;99.90;;;;;;5150808;27;19911;-41
2023/09/19 01:09:11;;;;;;;;;;;13.80;99.90;;;;;;5133244;28;19907;-41
2023/09/19 01:11:45;;;;;;;;;;;13.80;99.90;;;;;;5133299;27;19914;-40
2023/09/19 01:14:25;;;;;;;;;;;13.80;99.90;;;;;;5132945;27;19907;-41
2023/09/19 01:17:00;;;;;;;;;;;13.80;99.90;;;;;;5133377;28;19908;-41
2023/09/19 01:19:29;;;;;;;;;;;13.80;99.90;;;;;;5133129;28;20400;-40
2023/09/19 01:22:13;;;;;;;;;;;13.80;99.90;;;;;;5133281;28;19956;-41
2023/09/19 01:24:50;;;;;;;;;;;13.80;99.90;;;;;;5133108;28;19951;-42
2023/09/19 01:27:18;;;;;;;;;;;13.80;99.90;;;;;;5133218;27;19943;-40
2023/09/19 01:29:46;;;;;;;;;;;13.80;99.90;;;;;;5133138;28;19907;-40
2023/09/19 01:32:15;;;;;;;;;;;13.80;99.90;;;;;;5137369;27;20341;-42
2023/09/19 01:34:45;;;;;;;;;;;13.80;99.90;;;;;;5157558;27;20353;-42
2023/09/19 01:37:11;;;;;;;;;;;13.70;99.90;;;;;;5157343;27;20361;-41
2023/09/19 01:39:37;;;;;;;;;;;13.70;99.90;;;;;;5157458;27;20052;-41
2023/09/19 01:42:19;;;;;;;;;;;13.70;99.90;;;;;;5157433;27;19911;-40
2023/09/19 01:44:47;;;;;;;;;;;13.70;99.90;;;;;;5157541;27;19907;-41
2023/09/19 01:47:32;;;;;;;;;;;13.70;99.90;;;;;;5157348;27;19907;-41
2023/09/19 01:50:05;;;;;;;;;;;13.70;99.90;;;;;;5157139;27;19907;-42
2023/09/19 01:52:36;;;;;;;;;;;13.70;99.90;;;;;;5157204;27;19915;-40
2023/09/19 01:55:06;;;;;;;;;;;13.60;99.90;;;;;;5157130;27;19911;-41
2023/09/19 01:57:37;;;;;;;;;;;13.60;99.90;;;;;;5157140;27;19914;-40
2023/09/19 02:00:06;;;;;;;;;;;13.60;99.90;;;;;;5157207;27;19907;-40
2023/09/19 02:02:36;;;;;;;;;;;13.60;99.90;;;;;;5141175;27;19916;-41
2023/09/19 02:05:01;;;;;;;;;;;13.60;99.90;;;;;;5136155;27;19960;-41
2023/09/19 02:07:28;;;;;;;;;;;13.60;99.90;;;;;;5136192;27;20001;-42
2023/09/19 02:09:55;;;;;;;;;;;13.60;99.90;;;;;;5136239;27;19915;-41
2023/09/19 02:12:20;;;;;;;;;;;13.60;99.90;;;;;;5136026;27;19973;-41
2023/09/19 02:14:46;;;;;;;;;;;13.60;99.90;;;;;;5136118;27;20369;-41
2023/09/19 02:17:12;;;;;;;;;;;13.50;99.90;;;;;;5136050;27;19908;-41
2023/09/19 02:19:38;;;;;;;;;;;13.50;99.90;;;;;;5135992;27;20003;-42
2023/09/19 02:22:07;;;;;;;;;;;13.50;99.90;;;;;;5135847;27;19911;-41
2023/09/19 02:24:36;;;;;;;;;;;13.50;99.90;;;;;;5135953;27;19907;-41
2023/09/19 02:27:04;;;;;;;;;;;13.50;99.90;;;;;;5135788;27;19907;-42
2023/09/19 02:29:29;;;;;;;;;;;13.50;99.90;;;;;;5135780;27;19907;-42
2023/09/19 02:31:55;;;;;;;;;;;13.50;99.90;;;;;;5134276;27;20161;-42
2023/09/19 02:34:23;;;;;;;;;;;13.50;99.90;;;;;;5114348;28;21383;-41
2023/09/19 02:36:48;;;;;;;;;;;13.50;99.90;;;;;;5115044;28;19912;-42
2023/09/19 02:39:14;;;;;;;;;;;13.40;99.90;;;;;;5115019;28;19911;-42
2023/09/19 02:41:41;;;;;;;;;;;13.50;99.90;;;;;;5115093;28;19908;-42
2023/09/19 02:44:07;;;;;;;;;;;13.50;99.90;;;;;;5115061;28;19907;-41
2023/09/19 02:46:33;;;;;;;;;;;13.50;99.90;;;;;;5114969;28;19914;-41
2023/09/19 02:48:58;;;;;;;;;;;13.50;99.90;;;;;;5114835;28;19995;-42
2023/09/19 02:51:23;;;;;;;;;;;13.40;99.90;;;;;;5114808;28;19908;-41
2023/09/19 02:53:52;;;;;;;;;;;13.40;99.90;;;;;;5114689;28;19922;-41
2023/09/19 02:56:18;;;;;;;;;;;13.40;99.90;;;;;;5114658;28;19915;-41
2023/09/19 02:58:44;;;;;;;;;;;13.40;99.90;;;;;;5114803;28;19911;-41
2023/09/19 03:01:11;;;;;;;;;;;13.40;99.90;;;;;;5114518;28;19915;-42
2023/09/19 03:03:38;;;;;;;;;;;13.40;99.90;;;;;;5114377;28;20048;-41
2023/09/19 03:06:05;;;;;;;;;;;13.30;99.90;;;;;;5114538;28;19919;-41
2023/09/19 03:08:31;;;;;;;;;;;13.40;99.90;;;;;;5114511;28;19991;-42
2023/09/19 03:10:56;;;;;;;;;;;13.40;99.90;;;;;;5121176;27;19947;-42
2023/09/19 03:13:22;;;;;;;;;;;13.40;99.90;;;;;;5134104;27;20415;-41
2023/09/19 03:15:50;;;;;;;;;;;13.40;99.90;;;;;;5116247;27;19907;-41
2023/09/19 03:18:15;;;;;;;;;;;13.30;99.90;;;;;;5115128;27;20209;-42
2023/09/19 03:20:41;;;;;;;;;;;13.40;99.90;;;;;;5114371;28;20376;-43
2023/09/19 03:23:08;;;;;;;;;;;13.30;99.90;;;;;;5113991;27;19961;-41
2023/09/19 03:25:34;;;;;;;;;;;13.30;99.90;;;;;;5114169;28;19912;-41
2023/09/19 03:28:00;;;;;;;;;;;13.30;99.90;;;;;;5128972;27;19912;-41
2023/09/19 03:30:26;;;;;;;;;;;13.30;99.90;;;;;;5134070;27;19943;-42
2023/09/19 03:32:51;;;;;;;;;;;13.30;99.90;;;;;;5143178;27;20389;-42
2023/09/19 03:35:17;;;;;;;;;;;13.30;99.90;;;;;;5154703;27;20253;-42
2023/09/19 03:37:43;;;;;;;;;;;13.30;99.90;;;;;;5154797;27;19994;-42
2023/09/19 03:40:10;;;;;;;;;;;13.30;99.90;;;;;;5152946;27;19950;-42
2023/09/19 03:42:38;;;;;;;;;;;13.30;99.90;;;;;;5143305;27;19907;-41
2023/09/19 03:45:05;;;;;;;;;;;13.30;99.90;;;;;;5155078;27;20409;-43
2023/09/19 03:47:31;;;;;;;;;;;13.40;99.90;;;;;;5141822;27;19998;-42
2023/09/19 03:49:56;;;;;;;;;;;13.40;99.90;;;;;;5134318;27;19943;-41
2023/09/19 03:52:22;;;;;;;;;;;13.50;99.90;;;;;;5133177;27;20293;-43
2023/09/19 03:54:47;;;;;;;;;;;13.50;99.90;;;;;;5133788;27;19911;-42
2023/09/19 03:57:15;;;;;;;;;;;13.50;99.90;;;;;;5134135;27;19915;-42
2023/09/19 03:59:42;;;;;;;;;;;13.50;99.90;;;;;;5146826;27;19985;-43
2023/09/19 04:02:12;;;;;;;;;;;13.50;99.90;;;;;;5151532;27;19907;-42
2023/09/19 04:04:37;;;;;;;;;;;13.50;99.90;;;;;;5134086;27;20310;-42
2023/09/19 04:07:03;;;;;;;;;;;13.60;99.90;;;;;;5134071;27;19946;-42
2023/09/19 04:09:28;;;;;;;;;;;13.60;99.90;;;;;;5131556;27;19914;-42
2023/09/19 04:11:54;;;;;;;;;;;13.60;99.90;;;;;;5133889;27;19958;-43
2023/09/19 04:14:19;;;;;;;;;;;13.60;99.90;;;;;;5117893;27;19919;-42
2023/09/19 04:16:45;;;;;;;;;;;13.60;99.90;;;;;;5119267;27;19937;-43
2023/09/19 04:19:10;;;;;;;;;;;13.60;99.90;;;;;;5141735;27;19994;-41
2023/09/19 04:21:36;;;;;;;;;;;13.60;99.90;;;;;;5142826;27;19907;-43
2023/09/19 04:24:01;;;;;;;;;;;13.60;99.90;;;;;;5138013;27;20452;-42
2023/09/19 04:26:26;;;;;;;;;;;13.70;99.90;;;;;;5141214;27;19934;-42
2023/09/19 04:28:52;;;;;;;;;;;13.70;99.90;;;;;;5142437;27;19912;-43
2023/09/19 04:31:19;;;;;;;;;;;13.70;99.90;;;;;;5142669;27;19957;-42
2023/09/19 04:33:44;;;;;;;;;;;13.70;99.90;;;;;;5126496;27;19919;-41
2023/09/19 04:36:10;;;;;;;;;;;13.80;99.90;;;;;;5120367;28;19908;-42
2023/09/19 04:38:36;;;;;;;;;;;13.80;99.90;;;;;;5122226;28;19908;-42
2023/09/19 04:41:01;;;;;;;;;;;13.80;99.90;;;;;;5121196;28;19908;-42
2023/09/19 04:43:28;;;;;;;;;;;13.90;99.90;;;;;;5116987;28;19911;-41
2023/09/19 04:45:55;;;;;;;;;;;13.90;99.90;;;;;;5107931;28;20047;-42
2023/09/19 04:48:28;;;;;;;;;;;13.90;99.90;;;;;;5115970;28;19919;-42
2023/09/19 04:50:54;;;;;;;;;;;13.90;99.90;;;;;;5112512;28;20018;-42
2023/09/19 04:53:20;;;;;;;;;;;14.00;99.90;;;;;;5112247;28;20007;-42
2023/09/19 04:55:49;;;;;;;;;;;14.00;99.90;;;;;;5113016;28;19931;-43
2023/09/19 04:58:15;;;;;;;;;;;14.10;99.90;;;;;;5112280;28;19916;-42
2023/09/19 05:00:40;;;;;;;;;;;14.10;99.90;;;;;;5112063;28;20313;-43
2023/09/19 05:03:06;;;;;;;;;;;14.10;99.90;;;;;;5108921;28;19916;-42
2023/09/19 05:05:32;;;;;;;;;;;14.10;99.90;;;;;;5111946;28;19915;-42
2023/09/19 05:07:59;;;;;;;;;;;14.10;99.90;;;;;;5114626;28;19960;-42
2023/09/19 05:10:24;;;;;;;;;;;14.10;99.90;;;;;;5116080;28;20006;-41
2023/09/19 05:12:52;;;;;;;;;;;14.10;99.90;;;;;;5115949;28;20019;-42
2023/09/19 05:15:18;;;;;;;;;;;14.10;99.90;;;;;;5116057;28;19908;-43
2023/09/19 05:17:54;;;;;;;;;;;14.10;99.90;;;;;;5116142;28;19957;-43
2023/09/19 05:20:29;;;;;;;;;;;14.10;99.90;;;;;;5104319;28;19912;-43
2023/09/19 05:23:12;;;;;;;;;;;14.00;99.90;;;;;;5102142;28;19916;-42
2023/09/19 05:25:39;;;;;;;;;;;14.00;99.90;;;;;;5100190;28;19916;-42
2023/09/19 05:28:08;;;;;;;;;;;14.00;99.90;;;;;;5115502;28;19915;-42
2023/09/19 05:30:33;;;;;;;;;;;14.00;99.90;;;;;;5116420;28;19908;-43
2023/09/19 05:32:59;;;;;;;;;;;13.90;99.90;;;;;;5126216;27;19942;-43
2023/09/19 05:35:24;;;;;;;;;;;13.90;99.90;;;;;;5136918;27;20342;-44
2023/09/19 05:37:51;;;;;;;;;;;13.90;99.90;;;;;;5136714;27;19914;-43
2023/09/19 05:40:17;;;;;;;;;;;13.90;99.90;;;;;;5136479;27;20386;-43
2023/09/19 05:42:43;;;;;;;;;;;13.80;99.90;;;;;;5145524;27;19953;-40
2023/09/19 05:45:12;;;;;;;;;;;13.80;99.90;;;;;;5142724;27;19987;-43
2023/09/19 05:47:37;;;;;;;;;;;13.80;99.90;;;;;;5156653;27;19960;-43
2023/09/19 05:50:05;;;;;;;;;;;13.80;99.90;;;;;;5135412;27;19941;-43
2023/09/19 05:52:30;;;;;;;;;;;13.80;99.90;;;;;;5130160;27;20374;-45
2023/09/19 05:54:56;;;;;;;;;;;13.80;99.90;;;;;;5125037;27;19954;-42
2023/09/19 05:57:22;;;;;;;;;;;13.80;99.90;;;;;;5115810;28;19908;-41
2023/09/19 05:59:50;;;;;;;;;;;13.80;99.90;;;;;;5116115;28;20354;-43
2023/09/19 06:02:16;;;;;;;;;;;13.80;99.90;;;;;;5115566;28;20370;-44
2023/09/19 06:04:41;;;;;;;;;;;13.80;99.90;;;;;;5115671;28;19914;-43
2023/09/19 06:07:07;;;;;;;;;;;13.80;99.90;;;;;;5115813;28;20357;-42
2023/09/19 06:09:33;;;;;;;;;;;13.70;99.90;;;;;;5146422;27;19921;-44
2023/09/19 06:12:03;;;;;;;;;;;13.70;99.90;;;;;;5136027;27;20142;-44
2023/09/19 06:14:28;;;;;;;;;;;13.70;99.90;;;;;;5135950;27;19930;-44
2023/09/19 06:16:54;;;;;;;;;;;13.70;99.90;;;;;;5136106;27;19911;-44
2023/09/19 06:19:22;;;;;;;;;;;13.70;99.90;;;;;;5135510;27;19913;-43
2023/09/19 06:21:48;;;;;;;;;;;13.70;99.90;;;;;;5136081;27;20258;-43
2023/09/19 06:24:14;;;;;;;;;;;13.70;99.90;;;;;;5138927;27;20014;-42
2023/09/19 06:26:40;;;;;;;;;;;13.70;99.90;;;;;;5149457;27;19998;-42
2023/09/19 06:29:07;;;;;;;;;;;13.80;99.90;;;;;;5141687;27;19986;-43
2023/09/19 06:31:33;;;;;;;;;;;13.80;99.90;;;;;;5147983;27;19964;-43
2023/09/19 06:33:58;;;;;;;;;;;13.80;99.90;;;;;;5136605;27;19924;-43
2023/09/19 06:36:24;;;;;;;;;;;13.80;99.90;;;;;;5135594;27;19907;-42
2023/09/19 06:38:51;;;;;;;;;;;13.90;99.90;;;;;;5139465;27;20424;-42
2023/09/19 06:41:17;;;;;;;;;;;13.90;99.90;;;;;;5144112;27;19911;-42
2023/09/19 06:43:43;;;;;;;;;;;13.90;99.90;;;;;;5146462;27;19918;-44
2023/09/19 06:46:09;;;;;;;;;;;13.90;99.90;;;;;;5147147;27;19908;-43
2023/09/19 06:48:35;;;;;;;;;;;13.90;99.90;;;;;;5135513;27;19911;-43
2023/09/19 06:51:05;;;;;;;;;;;13.80;99.90;;;;;;5146472;27;19914;-43
2023/09/19 06:53:31;;;;;;;;;;;13.80;99.90;;;;;;5143687;27;19930;-43
2023/09/19 06:55:57;;;;;;;;;;;13.80;99.90;;;;;;5149173;27;19994;-42
2023/09/19 06:58:22;;;;;;;;;;;13.80;99.90;;;;;;5140557;27;19947;-43
2023/09/19 07:00:50;;;;;;;;;;;13.80;99.90;;;;;;5134812;27;20394;-46
2023/09/19 07:03:16;;;;;;;;;;;13.90;99.90;;;;;;5134979;27;19946;-43
2023/09/19 07:05:42;;;;;;;;;;;13.90;99.90;;;;;;5135074;27;19908;-42
2023/09/19 07:08:10;;;;;;;;;;;13.90;99.90;;;;;;5135066;27;19908;-43
2023/09/19 07:10:36;;;;;;;;;;;13.90;99.90;;;;;;5135151;27;20006;-42
2023/09/19 07:13:02;;;;;;;;;;;14.00;99.90;;;;;;5132065;27;20453;-42
2023/09/19 07:15:28;;;;;;;;;;;14.10;99.90;;;;;;5120863;27;20270;-44
2023/09/19 07:17:54;;;;;;;;;;;14.10;99.90;;;;;;5121560;27;20218;-42
2023/09/19 07:20:20;;;;;;;;;;;14.20;99.90;;;;;;5124582;27;20520;-44
2023/09/19 07:22:47;;;;;;;;;;;14.30;99.90;;;;;;5131096;27;20004;-43
2023/09/19 07:25:13;;;;;;;;;;;14.40;99.90;;;;;;5145924;27;19914;-43
2023/09/19 07:27:40;;;;;;;;;;;14.50;99.90;;;;;;5134523;27;19908;-43
2023/09/19 07:30:05;;;;;;;;;;;14.50;99.90;;;;;;5133537;27;19907;-43
2023/09/19 07:32:31;;;;;;;;;;;14.60;99.90;;;;;;5134182;27;20060;-43
2023/09/19 07:34:56;;;;;;;;;;;14.60;99.90;;;;;;5133891;27;19907;-44
2023/09/19 07:37:25;;;;;;;;;;;14.60;99.90;;;;;;5134486;27;19907;-45
2023/09/19 07:39:51;;;;;;;;;;;14.60;99.90;;;;;;5133976;27;19976;-43
2023/09/19 07:42:17;;;;;;;;;;;14.60;99.90;;;;;;5126889;27;19951;-45
2023/09/19 07:44:46;;;;;;;;;;;14.60;99.90;;;;;;5117932;27;19911;-44
2023/09/19 07:47:12;;;;;;;;;;;14.60;99.90;;;;;;5113393;28;19915;-43
2023/09/19 07:49:37;;;;;;;;;;;14.70;99.90;;;;;;5113589;28;19961;-43
2023/09/19 07:52:04;;;;;;;;;;;14.70;99.90;;;;;;5117840;27;19918;-43
2023/09/19 07:54:35;;;;;;;;;;;14.70;99.90;;;;;;5136737;27;19954;-45
2023/09/19 07:57:01;;;;;;;;;;;14.70;99.90;;;;;;5134961;27;19915;-44
2023/09/19 07:59:27;;;;;;;;;;;14.80;99.90;;;;;;5122449;27;19964;-48
2023/09/19 08:01:53;;;;;;;;;;;14.80;99.90;;;;;;5132331;27;20002;-43
2023/09/19 08:04:19;;;;;;;;;;;14.80;99.90;;;;;;5131035;27;19949;-42
2023/09/19 08:06:45;;;;;;;;;;;14.90;99.90;;;;;;5123679;27;19937;-43
2023/09/19 08:09:12;;;;;;;;;;;15.00;99.90;;;;;;5117675;27;19911;-44
2023/09/19 08:11:39;;;;;;;;;;;15.00;99.90;;;;;;5133484;27;19912;-44
2023/09/19 08:14:05;;;;;;;;;;;15.10;99.90;;;;;;5125086;27;19943;-42
2023/09/19 08:16:31;;;;;;;;;;;15.10;99.90;;;;;;5130267;27;19915;-43
2023/09/19 08:18:59;;;;;;;;;;;15.20;99.90;;;;;;5130267;27;19908;-43
2023/09/19 08:21:28;;;;;;;;;;;15.20;99.90;;;;;;5123413;27;20430;-43
2023/09/19 08:23:54;;;;;;;;;;;15.30;99.90;;;;;;5119236;27;19961;-43
2023/09/19 08:26:19;;;;;;;;;;;15.30;99.90;;;;;;5145753;27;20367;-45
2023/09/19 08:28:45;;;;;;;;;;;15.30;99.90;;;;;;5135630;27;19919;-44
2023/09/19 08:31:10;;;;;;;;;;;15.40;99.90;;;;;;5120705;28;19911;-44
2023/09/19 08:33:36;;;;;;;;;;;15.50;99.90;;;;;;5101513;28;19920;-43
2023/09/19 08:36:04;;;;;;;;;;;15.60;99.90;;;;;;5112304;28;20350;-43
2023/09/19 08:38:30;;;;;;;;;;;15.60;99.90;;;;;;5093015;28;19919;-43
2023/09/19 08:40:59;;;;;;;;;;;15.70;99.90;;;;;;5110299;28;20003;-42
2023/09/19 08:43:25;;;;;;;;;;;15.70;99.90;;;;;;5117661;28;19908;-43
2023/09/19 08:46:17;;;;;;;;;;;15.70;99.90;;;;;;5117854;27;19918;-43
2023/09/19 08:48:48;;;;;;;;;;;15.80;99.90;;;;;;5115896;27;19919;-44
2023/09/19 08:51:18;;;;;;;;;;;15.80;99.90;;;;;;5118637;27;19912;-43
2023/09/19 08:53:52;;;;;;;;;;;15.90;99.90;;;;;;5112067;27;19988;-42
2023/09/19 08:56:19;;;;;;;;;;;15.90;99.90;;;;;;5118622;27;19915;-45
2023/09/19 08:58:46;;;;;;;;;;;16.00;99.90;;;;;;5115582;28;20020;-42
2023/09/19 09:01:14;;;;;;;;;;;16.10;99.90;;;;;;5094522;28;20318;-43
2023/09/19 09:03:40;;;;;;;;;;;16.10;99.90;;;;;;5097105;28;19908;-42
2023/09/19 09:06:07;;;;;;;;;;;16.20;99.90;;;;;;5102398;28;19916;-43
2023/09/19 09:08:32;;;;;;;;;;;16.20;99.90;;;;;;5105565;28;19912;-45
2023/09/19 09:10:58;;;;;;;;;;;16.30;99.90;;;;;;5117028;28;19919;-43
2023/09/19 09:13:26;;;;;;;;;;;16.30;99.90;;;;;;5117215;27;19930;-42
2023/09/19 09:15:54;;;;;;;;;;;16.40;99.90;;;;;;5117221;28;19915;-42
2023/09/19 09:18:20;;;;;;;;;;;16.50;99.90;;;;;;5113410;28;19911;-43
2023/09/19 09:20:47;;;;;;;;;;;16.50;99.90;;;;;;5117394;28;19914;-43
2023/09/19 09:23:13;;;;;;;;;;;16.60;99.90;;;;;;5116839;28;19912;-43
2023/09/19 09:25:56;;;;;;;;;;;16.60;99.90;;;;;;5116472;28;20270;-43
2023/09/19 09:28:26;;;;;;;;;;;16.70;99.90;;;;;;5114825;28;19918;-43
2023/09/19 09:30:52;;;;;;;;;;;16.70;99.90;;;;;;5116201;28;19908;-42
2023/09/19 09:33:17;;;;;;;;;;;16.80;99.90;;;;;;5128046;27;19992;-43
2023/09/19 09:36:02;;;;;;;;;;;16.90;99.90;;;;;;5136781;27;19908;-45
2023/09/19 09:38:32;;;;;;;;;;;16.90;99.90;;;;;;5136436;27;19912;-42
2023/09/19 09:43:28;;;;;;;;;;;17.00;99.90;;;;;;5144148;27;19915;-43
2023/09/19 09:49:11;;;;;;;;;;;17.10;99.90;;;;;;5136959;27;20006;-43
2023/09/19 09:51:39;;;;;;;;;;;17.10;99.90;;;;;;5136408;27;20006;-42
2023/09/19 09:54:14;;;;;;;;;;;17.20;99.90;;;;;;5135151;27;20018;-44
2023/09/19 09:56:59;;;;;;;;;;;17.30;99.90;;;;;;5136043;27;19907;-43
2023/09/19 09:59:46;;;;;;;;;;;17.30;99.90;;;;;;5123468;27;20002;-42
2023/09/19 10:02:20;;;;;;;;;;;17.40;99.90;;;;;;5121419;27;20339;-42
2023/09/19 10:04:51;;;;;;;;;;;17.50;99.90;;;;;;5135909;27;19907;-42
2023/09/19 10:07:32;;;;;;;;;;;17.60;99.90;;;;;;5135792;27;20400;-44
2023/09/19 10:10:05;;;;;;;;;;;17.60;99.90;;;;;;5136423;27;19907;-42
2023/09/19 10:12:31;;;;;;;;;;;17.70;99.90;;;;;;5134271;27;19920;-43
2023/09/19 10:14:58;;;;;;;;;;;17.80;99.90;;;;;;5147857;27;20427;-41
2023/09/19 10:17:24;;;;;;;;;;;17.90;99.90;;;;;;5136249;27;20285;-43
2023/09/19 10:19:57;;;;;;;;;;;17.90;99.90;;;;;;5136303;27;19907;-44
2023/09/19 10:22:23;;;;;;;;;;;18.00;99.90;;;;;;5135476;27;20014;-42
2023/09/19 10:24:53;;;;;;;;;;;18.20;99.90;;;;;;5135590;27;19927;-41
2023/09/19 10:27:20;;;;;;;;;;;18.10;99.90;;;;;;5135295;27;19915;-42
2023/09/19 10:29:51;;;;;;;;;;;18.20;99.90;;;;;;5131767;27;19920;-42
2023/09/19 10:32:19;;;;;;;;;;;18.20;99.90;;;;;;5124525;27;19919;-42
2023/09/19 10:34:46;;;;;;;;;;;18.30;99.90;;;;;;5128903;27;19911;-43
2023/09/19 10:37:12;;;;;;;;;;;18.30;99.90;;;;;;5135684;27;20282;-42
2023/09/19 10:39:39;;;;;;;;;;;18.30;99.90;;;;;;5135823;27;19907;-43
2023/09/19 10:42:05;;;;;;;;;;;18.40;99.90;;;;;;5120791;27;19959;-44
2023/09/19 10:44:32;;;;;;;;;;;18.40;99.90;;;;;;5138013;27;19912;-44
2023/09/19 10:46:57;;;;;;;;;;;18.30;99.90;;;;;;5116450;27;20002;-43
2023/09/19 10:49:24;;;;;;;;;;;18.30;99.90;;;;;;5135923;27;20003;-43
2023/09/19 10:51:54;;;;;;;;;;;18.30;99.90;;;;;;5150331;27;19918;-43
2023/09/19 10:54:23;;;;;;;;;;;18.20;99.90;;;;;;5133125;27;19927;-43
2023/09/19 10:56:51;;;;;;;;;;;18.20;99.90;;;;;;5123809;27;19908;-43
2023/09/19 10:59:18;;;;;;;;;;;18.30;99.90;;;;;;5135292;27;19912;-44
2023/09/19 11:01:47;;;;;;;;;;;18.30;99.90;;;;;;5135280;27;19914;-42
2023/09/19 11:04:33;;;;;;;;;;;18.40;99.90;;;;;;5134670;27;19919;-43
2023/09/19 11:07:03;;;;;;;;;;;18.50;99.90;;;;;;5133821;27;19908;-44
2023/09/19 11:09:46;;;;;;;;;;;18.60;99.90;;;;;;5134277;27;20331;-43
2023/09/19 11:12:41;;;;;;;;;;;18.60;99.90;;;;;;5134304;27;19907;-43
2023/09/19 11:15:13;;;;;;;;;;;18.50;99.90;;;;;;5095827;28;19919;-42
2023/09/19 11:17:42;;;;;;;;;;;18.50;99.90;;;;;;5119524;27;19918;-42
2023/09/19 11:25:41;;;;;;;;;;;18.70;99.90;;;;;;5126951;27;19962;-42
2023/09/19 11:30:33;;;;;;;;;;;18.80;99.90;;;;;;5113745;28;19908;-42
2023/09/19 11:33:21;;;;;;;;;;;18.90;99.90;;;;;;5113574;28;19955;-43
2023/09/19 11:36:02;;;;;;;;;;;18.90;99.90;;;;;;5117693;27;19907;-43
2023/09/19 11:38:49;;;;;;;;;;;18.90;99.90;;;;;;5127535;27;20269;-44
2023/09/19 11:41:29;;;;;;;;;;;19.00;99.90;;;;;;5124892;27;19915;-42
2023/09/19 11:44:00;;;;;;;;;;;19.10;99.90;;;;;;5129763;27;20340;-43
2023/09/19 11:46:30;;;;;;;;;;;19.20;99.90;;;;;;5118802;27;19957;-41
2023/09/19 11:49:06;;;;;;;;;;;19.10;99.90;;;;;;5132716;27;19911;-41
2023/09/19 11:51:39;;;;;;;;;;;19.10;99.90;;;;;;5123979;27;19919;-43
2023/09/19 11:54:13;;;;;;;;;;;19.10;99.90;;;;;;5113075;28;19924;-43
2023/09/19 11:56:40;;;;;;;;;;;19.00;99.90;;;;;;5112665;28;19907;-43
2023/09/19 11:59:08;;;;;;;;;;;19.00;99.90;;;;;;5113553;28;19934;-43
2023/09/19 12:01:34;;;;;;;;;;;18.90;99.90;;;;;;5113557;28;19999;-43
2023/09/19 12:04:01;;;;;;;;;;;18.90;99.90;;;;;;5139266;27;20323;-46
2023/09/19 12:06:29;;;;;;;;;;;18.80;99.90;;;;;;5154158;27;20292;-44
2023/09/19 12:08:57;;;;;;;;;;;18.90;99.90;;;;;;5154866;27;19907;-43
2023/09/19 12:11:23;;;;;;;;;;;18.80;99.90;;;;;;5154575;27;19914;-44
2023/09/19 12:13:48;;;;;;;;;;;18.80;99.90;;;;;;5136017;27;20304;-42
2023/09/19 12:16:15;;;;;;;;;;;18.80;99.90;;;;;;5154232;27;19907;-43
2023/09/19 12:18:44;;;;;;;;;;;18.90;99.90;;;;;;5154610;27;19927;-44
2023/09/19 12:21:27;;;;;;;;;;;19.00;99.90;;;;;;5154048;27;19994;-42
2023/09/19 12:24:13;;;;;;;;;;;19.00;99.90;;;;;;5154547;27;19911;-43
2023/09/19 12:26:47;;;;;;;;;;;18.90;99.90;;;;;;5154659;27;19907;-42
2023/09/19 12:29:14;;;;;;;;;;;18.80;99.90;;;;;;5154361;27;20258;-43
2023/09/19 12:31:48;;;;;;;;;;;18.70;99.90;;;;;;5154479;27;19912;-43
2023/09/19 12:34:16;;;;;;;;;;;18.60;99.90;;;;;;5139263;27;19919;-43
2023/09/19 12:36:41;;;;;;;;;;;18.50;99.90;;;;;;5133798;28;19951;-42
2023/09/19 12:39:09;;;;;;;;;;;18.50;99.90;;;;;;5133604;28;20259;-42
2023/09/19 12:41:34;;;;;;;;;;;18.40;99.90;;;;;;5133621;28;20363;-43
2023/09/19 12:44:02;;;;;;;;;;;18.40;99.90;;;;;;5133628;27;19919;-43
2023/09/19 12:46:27;;;;;;;;;;;18.40;99.90;;;;;;5133535;28;19907;-42
2023/09/19 12:49:12;;;;;;;;;;;18.40;99.90;;;;;;5133584;28;20402;-42
2023/09/19 12:51:37;;;;;;;;;;;18.40;99.90;;;;;;5138900;27;19918;-42
2023/09/19 12:54:05;;;;;;;;;;;18.50;99.90;;;;;;5154200;27;20354;-44
2023/09/19 12:56:39;;;;;;;;;;;18.50;99.90;;;;;;5154387;27;19915;-44
2023/09/19 12:59:04;;;;;;;;;;;18.60;99.90;;;;;;5154322;27;19991;-42
2023/09/19 13:01:30;;;;;;;;;;;18.50;99.90;;;;;;5134940;27;19958;-41
2023/09/19 13:04:25;;;;;;;;;;;18.50;99.90;;;;;;5133504;28;19918;-42
2023/09/19 13:06:51;;;;;;;;;;;18.50;99.90;;;;;;5133488;28;19907;-41
2023/09/19 13:09:18;;;;;;;;;;;18.50;99.90;;;;;;5133305;28;19908;-42
2023/09/19 13:11:45;;;;;;;;;;;18.50;99.90;;;;;;5133262;28;20036;-43
2023/09/19 13:14:14;;;;;;;;;;;18.50;99.90;;;;;;5133324;28;19915;-43
2023/09/19 13:16:55;;;;;;;;;;;18.40;99.90;;;;;;5133429;28;19990;-43
2023/09/19 13:19:36;;;;;;;;;;;18.40;99.90;;;;;;5133192;28;20044;-43
2023/09/19 13:22:03;;;;;;;;;;;18.30;99.90;;;;;;5149661;27;19969;-43
2023/09/19 13:24:30;;;;;;;;;;;18.30;99.90;;;;;;5153930;27;20288;-43
2023/09/19 13:26:55;;;;;;;;;;;18.20;99.90;;;;;;5153898;27;20404;-44
2023/09/19 13:29:21;;;;;;;;;;;18.20;99.90;;;;;;5156700;27;19914;-44
2023/09/19 13:31:52;;;;;;;;;;;18.20;99.90;;;;;;5157812;27;19994;-44
2023/09/19 13:34:19;;;;;;;;;;;18.20;99.90;;;;;;5157541;27;19919;-43
2023/09/19 13:36:44;;;;;;;;;;;18.10;99.90;;;;;;5157616;27;19907;-44
2023/09/19 13:39:13;;;;;;;;;;;18.20;99.90;;;;;;5157553;27;19914;-43
2023/09/19 13:41:38;;;;;;;;;;;18.10;99.90;;;;;;5157697;27;19997;-44
2023/09/19 13:44:04;;;;;;;;;;;18.20;99.90;;;;;;5157574;27;20344;-44
2023/09/19 13:46:33;;;;;;;;;;;18.20;99.90;;;;;;5157462;27;19959;-43
2023/09/19 13:48:59;;;;;;;;;;;18.20;99.90;;;;;;5157476;27;19907;-44
2023/09/19 13:51:28;;;;;;;;;;;18.20;99.90;;;;;;5155083;27;19917;-43
2023/09/19 13:53:53;;;;;;;;;;;18.30;99.90;;;;;;5157537;27;19919;-43
2023/09/19 13:56:19;;;;;;;;;;;18.20;99.90;;;;;;5157224;27;19952;-45
2023/09/19 13:58:44;;;;;;;;;;;18.20;99.90;;;;;;5157280;27;20392;-44
2023/09/19 14:01:12;;;;;;;;;;;18.30;99.90;;;;;;5157160;27;19907;-43
2023/09/19 14:03:41;;;;;;;;;;;18.30;99.90;;;;;;5157197;27;19994;-44
2023/09/19 14:06:06;;;;;;;;;;;18.30;99.90;;;;;;5156961;27;19907;-43
2023/09/19 14:08:34;;;;;;;;;;;18.30;99.90;;;;;;5156957;27;20002;-44
2023/09/19 14:11:05;;;;;;;;;;;18.40;99.90;;;;;;5157037;27;19998;-43
2023/09/19 14:13:30;;;;;;;;;;;18.40;99.90;;;;;;5157001;27;19915;-44
2023/09/19 14:15:55;;;;;;;;;;;18.50;99.90;;;;;;5156870;27;19911;-44
2023/09/19 14:18:22;;;;;;;;;;;18.60;99.90;;;;;;5157040;27;19911;-43
2023/09/19 14:20:47;;;;;;;;;;;18.70;99.90;;;;;;5150578;27;19911;-43
2023/09/19 14:23:12;;;;;;;;;;;18.80;99.90;;;;;;5135895;27;19919;-44
2023/09/19 14:25:38;;;;;;;;;;;18.90;99.90;;;;;;5136123;27;19914;-45
2023/09/19 14:28:04;;;;;;;;;;;18.90;99.90;;;;;;5127640;27;19960;-44
2023/09/19 14:30:31;;;;;;;;;;;19.00;99.90;;;;;;5130580;27;20014;-44
2023/09/19 14:32:57;;;;;;;;;;;19.00;99.90;;;;;;5137715;27;19919;-44
2023/09/19 14:35:23;;;;;;;;;;;19.00;99.90;;;;;;5134233;27;20286;-43